LSMD Airport Information

Runway Information
Runway 11 Length 7726 ft width 130 ft
Elevation 1427 ft Threshold 0 ft Heading 108
Runway 29 Length 7726 ft Width 130 ft
Elevation 1470 ft Threshold 0 ft Heading 288
Runway 11R Length 2130 ft width 98 ft
Elevation 1428 ft Threshold 0 ft Heading 108
Runway 29L Length 2130 ft Width 98 ft
Elevation 1437 ft Threshold 0 ft Heading 288
Airport Frequencies
Type ARR Name ARR Frequency 37.68 MHZ
Type ARR Name ARR Frequency 134.925 MHZ
Type DEP Name DEP Frequency 139.5 MHZ
Type INFO Name INFO Frequency 138.05 MHZ
Type RDR Name RADAR Frequency 139.5 MHZ
Type TWR Name TWR Frequency 128.475 MHZ
Airport Navaids
Airport Weather Information & NOTAM
ADDS - METARS form results

(1846 UTC 17 October 2018)
Data provider http://aviationweather.gov/metar/data/
 
METAR text: LSMD 171820Z AUTO 14002KT 9999NDV NCD 13/09 Q1018 RMK
Conditions at: LSMD (DUBENDORF , CH) observed 1820 UTC 17 October 2018
Temperature: 13.0°C (55°F)
Dewpoint: 9.0°C (48°F) [RH = 77%]
Pressure (altimeter): 30.06 inches Hg (1018.0 mb)
Winds: from the SE (140 degrees) at 2 MPH (2 knots; 1.0 m/s)
Visibility: missing
Ceiling: at least 12,000 feet AGL
Clouds: sky clear below 12,000 feet AGL
Weather: no significant weather observed at this time

METAR text: LSMD 171750Z AUTO VRB02KT 9999NDV NCD 13/09 Q1018 RMK
Conditions at: LSMD (DUBENDORF , CH) observed 1750 UTC 17 October 2018
Temperature: 13.0°C (55°F)
Dewpoint: 9.0°C (48°F) [RH = 77%]
Pressure (altimeter): 30.06 inches Hg (1018.0 mb)
Winds: variable direction winds at 2 MPH (2 knots; 1.0 m/s)
Visibility: missing
Ceiling: at least 12,000 feet AGL
Clouds: sky clear below 12,000 feet AGL
Weather: no significant weather observed at this time